Time;durP1;ratioP1;P1;durP2;ratioP2;P2;SDS_P1;SDS_P2;PMS_P1;PMS_P2;Temp;Humidity;BMP_temperature;BMP_pressure;BME280_temperature;BME280_humidity;BME280_pressure;Samples;Min_cycle;Max_cycle;Signal;HPM_P1;HPM_P2
2022/11/02 00:00:42;;;;;;;;;38.00;32.00;;;;;16.28;67.28;99159.94;6080081;28;96419;-56
2022/11/02 00:03:45;;;;;;;;;37.40;32.00;;;;;16.25;66.88;99149.56;6098189;28;96229;-57
2022/11/02 00:06:49;;;;;;;;;33.50;30.25;;;;;16.30;66.91;99158.63;6096776;28;96261;-57
2022/11/02 00:09:52;;;;;;;;;32.40;30.00;;;;;16.35;66.86;99158.69;6094120;28;96462;-57
2022/11/02 00:12:56;;;;;;;;;36.80;30.60;;;;;16.35;66.66;99164.13;6077861;28;96488;-56
2022/11/02 00:16:02;;;;;;;;;37.60;32.00;;;;;16.38;66.68;99152.75;6094633;28;96400;-57
2022/11/02 00:19:08;;;;;;;;;31.50;29.00;;;;;16.38;66.41;99138.31;6097177;28;96339;-56
2022/11/02 00:22:11;;;;;;;;;31.50;28.00;;;;;16.10;66.39;99090.34;6099615;28;96399;-57
2022/11/02 00:25:18;;;;;;;;;34.60;32.00;;;;;16.41;66.50;99146.00;6095979;28;96347;-56
2022/11/02 00:28:23;;;;;;;;;36.25;30.25;;;;;16.36;66.74;99135.88;6097011;28;96407;-57
2022/11/02 00:31:26;;;;;;;;;37.40;30.00;;;;;16.32;66.72;99142.06;6097583;28;96713;-57
2022/11/02 00:34:30;;;;;;;;;39.40;32.00;;;;;16.34;66.69;99143.44;6094254;28;96475;-56
2022/11/02 00:37:33;;;;;;;;;35.75;31.75;;;;;16.38;66.59;99150.03;6075424;28;96265;-57
2022/11/02 00:40:37;;;;;;;;;37.60;32.00;;;;;16.38;66.64;99150.03;6093915;28;97001;-59
2022/11/02 00:43:42;;;;;;;;;36.00;32.60;;;;;16.47;66.27;99151.22;6095556;28;96436;-57
2022/11/02 00:46:46;;;;;;;;;35.00;31.50;;;;;16.44;66.33;99157.19;6077605;28;96261;-56
2022/11/02 00:49:49;;;;;;;;;35.00;30.75;;;;;16.49;66.27;99150.97;6083585;28;97019;-55
2022/11/02 00:52:53;;;;;;;;;34.60;31.60;;;;;16.47;66.17;99148.50;6076604;28;96698;-56
2022/11/02 00:55:56;;;;;;;;;31.80;28.40;;;;;16.54;66.03;99151.03;6082671;28;96594;-56
2022/11/02 00:59:02;;;;;;;;;33.00;30.00;;;;;16.51;66.08;99156.19;6099809;28;96420;-56
2022/11/02 01:02:07;;;;;;;;;29.00;27.60;;;;;16.47;66.36;99155.84;6081459;28;96987;-56
2022/11/02 01:05:11;;;;;;;;;26.20;25.80;;;;;16.51;66.33;99154.28;6099628;28;96422;-57
2022/11/02 01:08:15;;;;;;;;;30.40;27.40;;;;;16.57;66.12;99155.97;6096792;28;96241;-56
2022/11/02 01:11:20;;;;;;;;;28.25;27.25;;;;;16.58;66.21;99152.19;6102828;28;96515;-57
2022/11/02 01:14:27;;;;;;;;;26.80;24.80;;;;;16.57;66.04;99158.69;6099754;28;96606;-56
2022/11/02 01:17:30;;;;;;;;;26.20;22.60;;;;;16.60;66.10;99160.94;6106796;28;96438;-56
2022/11/02 01:20:33;;;;;;;;;28.40;25.40;;;;;16.65;65.89;99154.75;6087830;28;96315;-56
2022/11/02 01:23:38;;;;;;;;;26.75;24.75;;;;;16.63;65.12;99146.81;6092524;28;96442;-56
2022/11/02 01:26:42;;;;;;;;;23.80;23.00;;;;;16.70;65.62;99152.06;6097434;28;96387;-57
2022/11/02 01:29:47;;;;;;;;;22.00;21.00;;;;;16.70;65.65;99152.91;6081097;28;97667;-56
2022/11/02 01:32:50;;;;;;;;;28.60;24.40;;;;;16.70;65.55;99154.81;6099288;28;96877;-56
2022/11/02 01:35:56;;;;;;;;;25.60;23.00;;;;;16.68;65.34;99151.50;6079686;28;97306;-57
2022/11/02 01:38:59;;;;;;;;;23.60;22.60;;;;;16.71;65.63;99161.91;6082457;28;96344;-56
2022/11/02 01:42:03;;;;;;;;;23.40;21.60;;;;;16.68;65.56;99154.22;6100495;28;96300;-56
2022/11/02 01:45:11;;;;;;;;;23.50;20.25;;;;;16.65;65.82;99157.47;6083029;28;96660;-56
2022/11/02 01:48:15;;;;;;;;;28.40;26.40;;;;;16.57;65.66;99147.78;6098963;28;96400;-56
2022/11/02 01:51:22;;;;;;;;;25.00;24.25;;;;;16.56;65.89;99153.53;6097973;28;96568;-57
2022/11/02 01:54:29;;;;;;;;;25.00;24.00;;;;;16.52;66.01;99155.91;6097726;28;96328;-56
2022/11/02 01:57:33;;;;;;;;;25.60;24.60;;;;;16.44;66.34;99153.63;6096213;28;96304;-57
2022/11/02 02:00:39;;;;;;;;;28.60;25.00;;;;;16.40;66.44;99155.22;6080449;28;96279;-56
2022/11/02 02:03:43;;;;;;;;;28.25;27.00;;;;;16.38;66.56;99151.91;6079696;28;96519;-58
2022/11/02 02:06:49;;;;;;;;;30.00;27.00;;;;;16.37;66.68;99159.25;6094551;28;96472;-57
2022/11/02 02:09:55;;;;;;;;;27.60;26.20;;;;;16.36;66.76;99157.63;6081094;28;96266;-56
2022/11/02 02:12:58;;;;;;;;;27.60;25.60;;;;;16.33;67.08;99152.69;6082324;28;96557;-56
2022/11/02 02:16:14;;;;;;;;;27.75;26.25;;;;;16.17;67.73;99160.91;6082777;28;96249;-56
2022/11/02 02:19:38;;;;;;;;;26.60;24.80;;;;;16.11;68.45;99165.44;6082231;28;96487;-57
2022/11/02 02:22:55;;;;;;;;;27.00;23.60;;;;;16.08;68.31;99165.94;6065954;28;96866;-56
2022/11/02 02:26:38;;;;;;;;;27.60;24.00;;;;;16.02;68.62;99166.94;6096121;28;96307;-56
2022/11/02 02:29:52;;;;;;;;;27.80;26.00;;;;;16.08;68.55;99165.94;6069508;28;96372;-58
2022/11/02 02:32:58;;;;;;;;;32.00;28.00;;;;;16.01;68.27;99157.16;6078160;28;96343;-56
2022/11/02 02:36:10;;;;;;;;;26.00;24.00;;;;;16.11;68.54;99170.06;6079549;28;96541;-56
2022/11/02 02:39:21;;;;;;;;;25.80;23.40;;;;;16.05;68.75;99169.16;6094470;28;96313;-58
2022/11/02 02:42:32;;;;;;;;;24.00;21.60;;;;;15.98;69.12;99155.72;6097913;28;96314;-56
2022/11/02 02:45:40;;;;;;;;;28.60;25.00;;;;;15.95;69.44;99169.00;6064063;28;97019;-55
2022/11/02 02:48:46;;;;;;;;;27.40;25.80;;;;;15.98;69.42;99168.50;6096017;28;96526;-56
2022/11/02 02:51:51;;;;;;;;;27.00;25.00;;;;;15.98;69.42;99172.03;6097255;28;96949;-56
2022/11/02 02:54:59;;;;;;;;;26.00;23.00;;;;;15.99;68.99;99175.59;6099397;28;96268;-56
2022/11/02 02:58:05;;;;;;;;;28.60;24.60;;;;;15.90;69.88;99179.81;6098135;28;96292;-56
2022/11/02 03:01:14;;;;;;;;;27.50;24.00;;;;;15.86;70.22;99175.94;6101806;28;96327;-56
2022/11/02 03:04:18;;;;;;;;;26.00;24.00;;;;;15.87;70.04;99183.88;6083144;28;96667;-56
2022/11/02 03:07:26;;;;;;;;;26.25;22.25;;;;;15.88;70.14;99193.66;6096665;28;96235;-56
2022/11/02 03:10:45;;;;;;;;;25.40;23.00;;;;;15.89;70.19;99189.03;6080554;28;96348;-56
2022/11/02 03:14:11;;;;;;;;;26.20;23.20;;;;;15.82;70.33;99180.25;6079902;28;96336;-56
2022/11/02 03:17:19;;;;;;;;;25.00;24.00;;;;;15.82;70.46;99193.84;6078460;28;96214;-56
2022/11/02 03:20:39;;;;;;;;;24.00;23.00;;;;;15.70;71.07;99184.94;6080035;28;96648;-56
2022/11/02 03:23:52;;;;;;;;;26.00;23.00;;;;;15.60;71.40;99194.56;6097828;28;96266;-57
2022/11/02 03:27:11;;;;;;;;;26.00;23.00;;;;;15.59;71.35;99192.91;6080419;28;96528;-57
2022/11/02 03:30:18;;;;;;;;;27.60;25.40;;;;;15.50;72.18;99197.06;6079231;28;96283;-56
2022/11/02 03:33:30;;;;;;;;;25.00;23.00;;;;;15.44;72.41;99195.34;6079955;28;96602;-56
2022/11/02 03:36:40;;;;;;;;;28.40;24.20;;;;;15.35;72.60;99190.56;6096830;28;96446;-58
2022/11/02 03:39:49;;;;;;;;;27.00;24.00;;;;;15.32;72.60;99193.78;6082260;28;96699;-57
2022/11/02 03:42:54;;;;;;;;;24.40;23.40;;;;;15.32;72.58;99191.88;6095412;28;96551;-56
2022/11/02 03:46:00;;;;;;;;;26.00;23.00;;;;;15.30;72.87;99187.75;6079147;28;96211;-56
2022/11/02 03:49:11;;;;;;;;;25.00;23.40;;;;;15.24;73.11;99191.47;6063665;28;96841;-56
2022/11/02 03:52:19;;;;;;;;;28.80;24.40;;;;;15.24;73.08;99199.63;6079890;28;96424;-56
2022/11/02 03:55:30;;;;;;;;;27.00;23.40;;;;;15.24;73.06;99197.72;6063084;28;96786;-56
2022/11/02 03:58:35;;;;;;;;;27.00;25.00;;;;;15.22;73.16;99201.72;6079026;28;97468;-56
2022/11/02 04:01:43;;;;;;;;;25.60;22.60;;;;;15.16;73.88;99206.25;6078534;28;97556;-57
2022/11/02 04:04:52;;;;;;;;;24.20;20.20;;;;;15.14;73.59;99206.50;6086677;28;96246;-56
2022/11/02 04:14:46;;;;;;;;;27.00;25.00;;;;;15.10;73.75;99209.97;6103357;28;96345;-56
2022/11/02 04:21:15;;;;;;;;;25.40;23.00;;;;;15.11;73.92;99208.88;6078539;28;96258;-55
2022/11/02 04:27:38;;;;;;;;;24.00;21.40;;;;;15.13;73.83;99220.31;6059213;28;96839;-56
2022/11/02 04:30:43;;;;;;;;;23.20;21.00;;;;;15.07;73.80;99215.84;6089470;28;96651;-58
2022/11/02 04:33:46;;;;;;;;;25.00;20.60;;;;;14.98;74.58;99222.75;6103901;28;96242;-56
2022/11/02 04:36:53;;;;;;;;;24.25;22.25;;;;;14.95;74.46;99220.53;6087202;28;96432;-56
2022/11/02 04:39:56;;;;;;;;;23.40;20.40;;;;;14.98;74.29;99223.56;6086741;28;96605;-56
2022/11/02 04:42:59;;;;;;;;;20.80;20.40;;;;;15.01;74.02;99222.25;6103466;28;96446;-56
2022/11/02 04:46:03;;;;;;;;;25.00;22.00;;;;;15.06;74.08;99223.19;6085048;28;96966;-56
2022/11/02 04:49:08;;;;;;;;;21.60;19.00;;;;;15.01;74.43;99225.78;6086476;28;96315;-56
2022/11/02 04:52:14;;;;;;;;;24.00;22.00;;;;;14.96;75.28;99227.56;6083867;28;96662;-56
2022/11/02 04:55:23;;;;;;;;;23.40;21.00;;;;;15.00;74.69;99221.41;6087158;28;97854;-56
2022/11/02 04:58:27;;;;;;;;;22.00;20.00;;;;;15.03;75.33;99231.81;6083730;28;96865;-59
2022/11/02 05:01:32;;;;;;;;;23.00;21.00;;;;;15.06;75.21;99228.59;6099997;28;96382;-55
2022/11/02 05:04:36;;;;;;;;;25.60;21.60;;;;;15.06;75.25;99228.59;6102864;28;96253;-56
2022/11/02 05:07:41;;;;;;;;;21.60;20.60;;;;;15.11;74.75;99227.88;6102630;28;96439;-56
2022/11/02 05:10:44;;;;;;;;;23.60;21.40;;;;;15.14;74.75;99224.69;6100790;28;98199;-56
2022/11/02 05:13:48;;;;;;;;;26.00;24.00;;;;;15.16;74.45;99228.81;6077370;28;96933;-59
2022/11/02 05:16:53;;;;;;;;;22.40;20.80;;;;;15.17;73.79;99227.75;6076362;28;96489;-56
2022/11/02 05:19:56;;;;;;;;;22.00;21.00;;;;;15.27;73.72;99235.25;6062323;28;96703;-57
2022/11/02 05:23:01;;;;;;;;;27.50;23.50;;;;;15.28;73.63;99234.19;6084643;28;97017;-57
2022/11/02 05:26:09;;;;;;;;;22.20;21.20;;;;;15.24;73.55;99226.78;6093284;28;96516;-58
2022/11/02 05:29:15;;;;;;;;;21.60;18.60;;;;;15.30;73.84;99244.78;6090768;28;96167;-56
2022/11/02 05:32:18;;;;;;;;;22.40;19.00;;;;;15.31;73.91;99239.13;6060410;28;98296;-56
2022/11/02 05:35:22;;;;;;;;;23.60;21.40;;;;;15.33;73.96;99241.59;6083273;28;96631;-56
2022/11/02 05:38:28;;;;;;;;;23.50;21.00;;;;;15.34;73.87;99248.69;6079629;28;97755;-56
2022/11/02 05:41:34;;;;;;;;;20.60;19.60;;;;;15.45;73.64;99253.22;6081147;28;96812;-57
2022/11/02 05:44:37;;;;;;;;;19.50;18.50;;;;;15.49;73.54;99251.69;6094122;28;96268;-57
2022/11/02 05:47:41;;;;;;;;;22.40;21.00;;;;;15.46;73.70;99246.72;6077075;28;96899;-56
2022/11/02 05:50:44;;;;;;;;;25.00;21.00;;;;;15.49;73.36;99249.78;6097609;28;96504;-56
2022/11/02 05:53:49;;;;;;;;;24.40;20.00;;;;;15.57;73.31;99256.75;6099473;28;96093;-57
2022/11/02 05:56:52;;;;;;;;;23.20;21.20;;;;;15.62;72.75;99245.13;6095074;28;96369;-58
2022/11/02 05:59:55;;;;;;;;;20.25;18.00;;;;;15.66;72.63;99252.56;6077359;28;98529;-58
2022/11/02 06:02:59;;;;;;;;;24.00;22.00;;;;;15.75;71.91;99247.53;6112007;28;96338;-56
2022/11/02 06:06:05;;;;;;;;;23.75;19.00;;;;;15.98;71.24;99260.97;6102482;28;96326;-57
2022/11/02 06:09:10;;;;;;;;;21.25;19.75;;;;;15.99;70.78;99263.44;6097012;28;97211;-57
2022/11/02 06:12:14;;;;;;;;;29.00;24.00;;;;;16.06;70.14;99266.00;6098850;28;96343;-56
2022/11/02 06:15:17;;;;;;;;;19.75;18.75;;;;;16.07;70.41;99266.84;6101244;28;96524;-56
2022/11/02 06:18:21;;;;;;;;;23.00;21.00;;;;;16.32;69.85;99272.66;6092153;28;97636;-56
2022/11/02 06:21:24;;;;;;;;;22.00;20.00;;;;;16.83;67.84;99269.59;6095450;28;96552;-56
2022/11/02 06:24:29;;;;;;;;;24.00;21.00;;;;;17.49;65.60;99278.53;6096821;28;96702;-57
2022/11/02 06:27:32;;;;;;;;;22.50;21.00;;;;;18.75;60.71;99273.28;6097914;28;96619;-56
2022/11/02 06:30:36;;;;;;;;;22.40;21.00;;;;;20.23;55.00;99275.28;6098522;28;96465;-56
2022/11/02 06:33:39;;;;;;;;;20.00;18.80;;;;;21.74;48.86;99284.91;6100483;28;96567;-59
2022/11/02 06:36:42;;;;;;;;;23.20;21.20;;;;;23.13;45.30;99284.16;6099767;28;96264;-57
2022/11/02 06:39:47;;;;;;;;;22.75;21.00;;;;;23.68;43.09;99285.38;6088102;28;96395;-56
2022/11/02 06:42:55;;;;;;;;;23.20;21.00;;;;;24.13;42.33;99276.41;6077278;28;96815;-59
2022/11/02 06:46:18;;;;;;;;;19.50;17.50;;;;;24.17;41.24;99287.66;6088337;28;97144;-58
2022/11/02 06:49:22;;;;;;;;;22.80;21.00;;;;;25.14;39.53;99289.47;6089022;28;97433;-58
2022/11/02 06:52:25;;;;;;;;;21.60;20.00;;;;;25.51;37.94;99293.94;6094260;28;96926;-57
2022/11/02 06:55:30;;;;;;;;;21.00;18.00;;;;;24.82;38.80;99293.94;6089852;28;97083;-59
2022/11/02 06:58:33;;;;;;;;;23.00;19.50;;;;;23.94;40.84;99291.34;6099127;28;96369;-56
2022/11/02 07:01:36;;;;;;;;;24.00;21.40;;;;;24.67;39.79;99287.91;6097694;28;96444;-57
2022/11/02 07:04:43;;;;;;;;;21.00;18.00;;;;;26.01;37.76;99287.25;6099764;28;97038;-57
2022/11/02 07:07:47;;;;;;;;;21.00;20.00;;;;;25.39;37.78;99283.41;6100001;28;96368;-57
2022/11/02 07:10:53;;;;;;;;;23.25;21.00;;;;;24.50;39.73;99293.97;6097878;28;96373;-57
2022/11/02 07:13:56;;;;;;;;;24.60;20.00;;;;;24.13;40.70;99292.13;6098777;28;97092;-56
2022/11/02 07:16:59;;;;;;;;;24.50;22.50;;;;;25.12;38.63;99300.00;6098335;28;96297;-56
2022/11/02 07:20:04;;;;;;;;;23.00;20.00;;;;;26.44;36.29;99300.59;6093781;28;96486;-58
2022/11/02 07:23:07;;;;;;;;;20.60;19.00;;;;;26.32;35.97;99297.56;6085391;28;96493;-57
2022/11/02 07:26:13;;;;;;;;;24.40;18.60;;;;;25.86;36.84;99291.19;6073302;28;96590;-61
2022/11/02 07:29:17;;;;;;;;;20.20;19.00;;;;;24.55;38.94;99283.69;6077834;28;96554;-57
2022/11/02 07:32:20;;;;;;;;;22.00;20.60;;;;;23.36;41.26;99280.56;6086315;28;98363;-58
2022/11/02 07:35:24;;;;;;;;;21.00;19.00;;;;;22.32;43.49;99261.13;6089627;28;96495;-56
2022/11/02 07:38:27;;;;;;;;;23.20;18.60;;;;;21.80;45.48;99282.94;6083382;28;97150;-57
2022/11/02 07:41:32;;;;;;;;;21.00;20.00;;;;;22.85;43.99;99283.13;6090448;28;97419;-57
2022/11/02 07:44:35;;;;;;;;;21.75;19.00;;;;;24.26;40.93;99285.84;6087887;28;97459;-61
2022/11/02 07:47:42;;;;;;;;;25.00;20.25;;;;;23.89;41.01;99285.91;6089805;28;97450;-58
2022/11/02 07:50:46;;;;;;;;;22.40;19.40;;;;;24.40;40.35;99280.38;6092474;28;96736;-56
2022/11/02 07:53:49;;;;;;;;;21.00;19.00;;;;;25.90;37.57;99280.34;6096532;28;96613;-57
2022/11/02 07:56:53;;;;;;;;;22.00;18.60;;;;;27.08;34.91;99290.81;6094181;28;96284;-57
2022/11/02 07:59:57;;;;;;;;;23.50;18.00;;;;;28.97;32.32;99279.75;6099056;28;96152;-58
2022/11/02 08:03:02;;;;;;;;;18.80;17.20;;;;;30.70;29.79;99282.00;6101645;28;96953;-58
2022/11/02 08:06:06;;;;;;;;;20.00;18.00;;;;;31.95;27.48;99277.34;6080381;28;96662;-58
2022/11/02 08:09:10;;;;;;;;;21.00;18.00;;;;;32.69;25.51;99286.22;6103214;28;97241;-59
2022/11/02 08:12:15;;;;;;;;;18.00;17.00;;;;;33.86;24.59;99278.72;6094283;28;96519;-59
2022/11/02 08:15:18;;;;;;;;;18.00;16.00;;;;;34.49;23.77;99284.81;6089673;28;96408;-59
2022/11/02 08:18:23;;;;;;;;;21.40;19.00;;;;;35.26;23.17;99289.41;6089651;28;96913;-59
2022/11/02 08:21:26;;;;;;;;;17.75;17.00;;;;;35.90;22.01;99277.16;6091992;28;96405;-59
2022/11/02 08:24:29;;;;;;;;;20.00;17.00;;;;;36.61;22.01;99281.66;6079901;28;96678;-59
2022/11/02 08:27:34;;;;;;;;;21.00;18.00;;;;;36.54;21.42;99272.31;6080183;28;96508;-61
2022/11/02 08:30:38;;;;;;;;;19.00;18.00;;;;;36.44;21.50;99257.78;6088842;28;97115;-61
2022/11/02 08:33:42;;;;;;;;;19.00;17.00;;;;;37.36;21.34;99265.44;6088127;28;96140;-60
2022/11/02 08:36:45;;;;;;;;;18.00;17.00;;;;;38.42;19.78;99263.16;6095867;28;97317;-60
2022/11/02 08:39:49;;;;;;;;;16.00;15.00;;;;;38.87;18.77;99261.66;6087408;28;96319;-61
2022/11/02 08:42:57;;;;;;;;;15.00;15.00;;;;;39.51;18.04;99261.66;6104124;28;96669;-59
2022/11/02 08:46:01;;;;;;;;;16.40;15.60;;;;;39.78;17.91;99260.03;6095256;28;97275;-59
2022/11/02 08:49:17;;;;;;;;;17.33;14.33;;;;;40.17;17.39;99262.69;6086022;28;96658;-60
2022/11/02 08:52:21;;;;;;;;;18.50;17.50;;;;;40.50;17.43;99256.44;6074811;28;96640;-60
2022/11/02 08:55:24;;;;;;;;;15.40;15.00;;;;;40.48;17.33;99249.59;6080380;28;96452;-60
2022/11/02 08:58:29;;;;;;;;;16.75;15.25;;;;;40.04;17.18;99248.19;6089801;28;97846;-61
2022/11/02 09:01:32;;;;;;;;;15.40;14.00;;;;;40.19;17.23;99255.41;6080162;28;96342;-59
2022/11/02 09:04:36;;;;;;;;;15.80;13.80;;;;;40.48;17.24;99241.91;6094817;28;96605;-57
2022/11/02 09:07:40;;;;;;;;;15.80;14.00;;;;;40.34;17.37;99246.84;6092656;28;96485;-59
2022/11/02 09:10:44;;;;;;;;;14.00;13.00;;;;;40.40;17.31;99248.03;6065609;28;96983;-57
2022/11/02 09:13:49;;;;;;;;;14.00;12.00;;;;;40.80;16.89;99250.22;6101559;28;96387;-58
2022/11/02 09:16:58;;;;;;;;;14.00;14.00;;;;;40.80;16.42;99240.94;6092545;28;97072;-58
2022/11/02 09:20:01;;;;;;;;;13.60;12.00;;;;;41.08;16.51;99235.06;6104224;28;96580;-58
2022/11/02 09:23:05;;;;;;;;;15.60;15.00;;;;;41.49;16.52;99235.84;6085867;28;96687;-58
2022/11/02 09:26:08;;;;;;;;;13.60;12.00;;;;;41.85;16.04;99235.44;6089837;28;96290;-60
2022/11/02 09:29:13;;;;;;;;;18.00;15.00;;;;;42.05;16.13;99230.75;6074075;28;97831;-61
2022/11/02 09:32:16;;;;;;;;;13.00;13.00;;;;;41.72;15.77;99240.06;6091369;28;96853;-59
2022/11/02 09:35:20;;;;;;;;;14.00;12.40;;;;;41.92;15.87;99238.22;6100267;28;97207;-58
2022/11/02 09:38:23;;;;;;;;;12.00;11.00;;;;;42.11;15.69;99231.91;6114051;28;96632;-58
2022/11/02 09:41:34;;;;;;;;;13.60;12.60;;;;;41.98;15.58;99224.41;6096997;28;96946;-59
2022/11/02 09:44:49;;;;;;;;;11.00;11.00;;;;;42.06;15.64;99221.03;6104545;28;96107;-58
2022/11/02 09:47:59;;;;;;;;;12.00;12.00;;;;;41.90;15.09;99229.34;6103246;28;96279;-58
2022/11/02 09:51:26;;;;;;;;;11.00;10.00;;;;;41.81;15.36;99224.16;6101175;28;96963;-58
2022/11/02 09:54:34;;;;;;;;;12.00;11.00;;;;;42.04;15.05;99217.03;6102365;28;96523;-59
2022/11/02 09:57:40;;;;;;;;;10.25;9.25;;;;;42.28;15.28;99215.91;6096496;28;96693;-59
2022/11/02 10:00:51;;;;;;;;;8.00;8.00;;;;;42.32;14.85;99220.28;6101135;28;96707;-58
2022/11/02 10:04:13;;;;;;;;;7.50;7.00;;;;;42.57;14.63;99207.78;6099838;28;96481;-59
2022/11/02 10:07:29;;;;;;;;;6.75;6.75;;;;;42.53;14.00;99201.34;6100319;28;96913;-62
2022/11/02 10:10:36;;;;;;;;;7.50;6.50;;;;;42.88;14.12;99211.34;6100422;28;96648;-58
2022/11/02 10:13:46;;;;;;;;;6.60;5.80;;;;;42.76;14.09;99209.94;6100079;28;96730;-58
2022/11/02 10:17:02;;;;;;;;;7.00;6.00;;;;;42.54;14.14;99215.09;6099665;28;96535;-59
2022/11/02 10:20:14;;;;;;;;;7.80;6.80;;;;;42.52;14.73;99211.09;6102409;28;96934;-58
2022/11/02 10:23:24;;;;;;;;;9.00;8.00;;;;;42.41;14.20;99205.59;6101538;28;96225;-59
2022/11/02 10:26:32;;;;;;;;;8.00;7.00;;;;;42.03;14.69;99199.22;6102331;28;97450;-58
2022/11/02 10:29:44;;;;;;;;;8.00;7.00;;;;;41.43;15.12;99194.28;6103943;28;96398;-58
2022/11/02 10:32:52;;;;;;;;;8.00;8.00;;;;;41.48;14.85;99191.81;6104989;28;97163;-58
2022/11/02 10:36:13;;;;;;;;;8.00;8.00;;;;;40.87;15.08;99182.28;6104653;28;96298;-58
2022/11/02 10:39:32;;;;;;;;;8.25;6.00;;;;;41.06;15.41;99193.03;6109926;28;96785;-59
2022/11/02 10:42:51;;;;;;;;;8.00;7.00;;;;;41.10;15.43;99185.31;6103335;28;97151;-59
2022/11/02 10:46:13;;;;;;;;;8.25;8.00;;;;;40.91;15.45;99182.25;6104406;28;96310;-58
2022/11/02 10:49:34;;;;;;;;;7.67;6.67;;;;;40.20;15.13;99183.59;6106495;28;96384;-59
2022/11/02 10:52:39;;;;;;;;;6.40;6.00;;;;;40.10;15.30;99187.25;6100130;28;96581;-58
2022/11/02 10:55:51;;;;;;;;;6.00;5.60;;;;;40.21;15.65;99178.75;6099520;28;96898;-59
2022/11/02 10:59:03;;;;;;;;;6.40;5.40;;;;;40.22;14.81;99178.31;6099638;28;96178;-58
2022/11/02 11:02:12;;;;;;;;;6.60;6.00;;;;;40.38;15.41;99177.81;6089806;28;98263;-59
2022/11/02 11:05:19;;;;;;;;;7.00;6.00;;;;;40.57;14.92;99182.91;6093033;28;96277;-58
2022/11/02 11:08:41;;;;;;;;;9.00;7.40;;;;;40.48;15.01;99185.41;6100207;28;96986;-59
2022/11/02 11:11:54;;;;;;;;;6.00;5.60;;;;;40.44;15.07;99172.53;6097425;28;96370;-59
2022/11/02 11:14:59;;;;;;;;;6.00;6.00;;;;;40.48;15.10;99179.75;6097701;28;96498;-60
2022/11/02 11:18:23;;;;;;;;;6.00;6.00;;;;;40.38;15.17;99185.47;6102612;28;96895;-58
2022/11/02 11:21:49;;;;;;;;;6.00;6.00;;;;;40.12;15.43;99187.66;6081476;28;99527;-59
2022/11/02 11:24:52;;;;;;;;;5.00;5.00;;;;;39.93;15.62;99182.50;6102087;28;96697;-60
2022/11/02 11:27:57;;;;;;;;;5.20;4.00;;;;;40.25;15.17;99169.03;6081066;28;99142;-59
2022/11/02 11:31:08;;;;;;;;;7.00;5.00;;;;;39.76;15.32;99174.94;6099553;28;96340;-57
2022/11/02 11:34:25;;;;;;;;;4.00;4.00;;;;;39.53;15.13;99168.94;6098793;28;96800;-57
2022/11/02 11:37:30;;;;;;;;;5.00;5.00;;;;;38.84;16.00;99167.44;6099414;28;96793;-57
2022/11/02 11:40:38;;;;;;;;;5.50;5.50;;;;;38.70;15.66;99164.63;6100359;28;96787;-57
2022/11/02 11:43:44;;;;;;;;;7.00;5.00;;;;;38.58;15.79;99159.38;6099893;28;96393;-60
2022/11/02 11:46:50;;;;;;;;;6.80;5.00;;;;;38.46;16.24;99157.75;6099992;28;97180;-57
2022/11/02 11:49:55;;;;;;;;;6.00;5.00;;;;;38.18;16.25;99160.53;6099021;28;96914;-57
2022/11/02 11:53:23;;;;;;;;;6.00;5.00;;;;;38.40;16.18;99158.56;6099363;28;96899;-59
2022/11/02 11:56:26;;;;;;;;;7.40;7.00;;;;;38.06;16.27;99158.91;6099331;28;96135;-60
2022/11/02 11:59:43;;;;;;;;;8.50;6.00;;;;;37.74;16.63;99163.59;6100071;28;96316;-58
2022/11/02 12:03:02;;;;;;;;;5.40;5.00;;;;;37.26;17.50;99168.56;6096805;28;96351;-58
2022/11/02 12:06:19;;;;;;;;;4.00;4.00;;;;;36.58;17.34;99164.41;6088281;28;96354;-58
2022/11/02 12:09:34;;;;;;;;;6.00;5.00;;;;;36.51;17.01;99155.91;6093935;28;96534;-59
2022/11/02 12:13:06;;;;;;;;;6.00;5.60;;;;;36.25;17.42;99153.28;6064705;28;97326;-57
2022/11/02 12:16:19;;;;;;;;;3.25;3.25;;;;;35.64;17.83;99149.75;6102044;28;96796;-58
2022/11/02 12:19:34;;;;;;;;;5.00;4.00;;;;;34.82;18.49;99160.19;6103352;28;96262;-58
2022/11/02 12:22:47;;;;;;;;;4.00;4.00;;;;;33.87;19.62;99160.03;6096486;28;96551;-57
2022/11/02 12:25:59;;;;;;;;;5.00;5.00;;;;;33.06;20.31;99153.47;6097219;28;96723;-57
2022/11/02 12:29:22;;;;;;;;;4.50;4.00;;;;;32.24;21.33;99151.47;6098244;28;96628;-58
2022/11/02 12:32:42;;;;;;;;;6.00;5.00;;;;;31.79;21.98;99145.41;6097309;28;96256;-57
2022/11/02 12:36:04;;;;;;;;;6.00;6.00;;;;;31.39;22.56;99146.25;6088764;28;96261;-57
2022/11/02 12:39:10;;;;;;;;;6.00;5.00;;;;;30.78;23.17;99139.97;6096429;28;96385;-59
2022/11/02 12:42:25;;;;;;;;;7.00;5.00;;;;;30.34;24.06;99136.09;6071249;28;100671;-57
2022/11/02 12:45:46;;;;;;;;;7.00;6.00;;;;;30.15;24.36;99146.16;6093256;28;96222;-60
2022/11/02 12:49:00;;;;;;;;;6.00;6.00;;;;;29.98;24.46;99147.97;6099565;28;96663;-57
2022/11/02 12:52:18;;;;;;;;;5.80;5.00;;;;;29.65;24.81;99138.78;6097654;28;96814;-58
2022/11/02 12:55:27;;;;;;;;;5.00;4.00;;;;;29.63;24.41;99146.63;6096743;28;96965;-57
2022/11/02 12:58:36;;;;;;;;;6.00;6.00;;;;;29.47;25.14;99134.56;6095019;28;96448;-58
2022/11/02 13:01:45;;;;;;;;;6.00;6.00;;;;;29.49;24.68;99137.78;6092004;28;96505;-57
2022/11/02 13:04:56;;;;;;;;;6.00;5.20;;;;;29.46;24.75;99138.47;6103339;28;96354;-57
2022/11/02 13:08:07;;;;;;;;;8.25;7.75;;;;;29.29;24.89;99134.66;6104254;28;96555;-58
2022/11/02 13:11:15;;;;;;;;;7.00;6.00;;;;;29.19;25.34;99137.03;6103449;28;96597;-57
2022/11/02 13:14:22;;;;;;;;;7.00;6.40;;;;;28.97;25.21;99134.59;6079712;28;96608;-57
2022/11/02 13:17:30;;;;;;;;;6.33;6.00;;;;;28.76;25.61;99140.09;6090428;28;98376;-58
2022/11/02 13:20:40;;;;;;;;;5.00;4.00;;;;;28.62;25.64;99131.97;6084255;28;96495;-57
2022/11/02 13:23:49;;;;;;;;;5.00;4.60;;;;;28.52;25.93;99129.59;6095757;28;96193;-59
2022/11/02 13:26:53;;;;;;;;;5.00;5.00;;;;;28.36;26.39;99132.09;6094180;28;96242;-58
2022/11/02 13:30:15;;;;;;;;;5.60;5.00;;;;;28.20;26.54;99136.56;6098205;28;96320;-59
2022/11/02 13:33:25;;;;;;;;;6.00;6.00;;;;;27.82;27.13;99138.44;6092241;28;96396;-57
2022/11/02 13:36:28;;;;;;;;;6.50;6.50;;;;;27.73;27.27;99141.22;6080154;28;96516;-57
2022/11/02 13:39:38;;;;;;;;;4.60;4.00;;;;;27.54;27.19;99146.31;6105814;28;96821;-57
2022/11/02 13:43:02;;;;;;;;;5.00;5.00;;;;;27.16;27.14;99135.06;6105271;28;96212;-57
2022/11/02 13:46:28;;;;;;;;;5.60;5.00;;;;;26.68;27.72;99135.09;6079261;28;97897;-57
2022/11/02 13:49:36;;;;;;;;;5.00;5.00;;;;;26.69;27.77;99137.53;6084995;28;96647;-57
2022/11/02 13:52:44;;;;;;;;;4.25;4.00;;;;;26.40;28.99;99144.75;6100749;28;96942;-57
2022/11/02 13:55:54;;;;;;;;;7.40;6.40;;;;;26.33;29.17;99141.66;6105427;28;96956;-58
2022/11/02 13:59:02;;;;;;;;;7.00;5.80;;;;;26.23;29.41;99146.34;6105846;28;96346;-57
2022/11/02 14:02:14;;;;;;;;;5.80;4.80;;;;;26.25;29.95;99149.56;6105153;28;97161;-57
2022/11/02 14:05:26;;;;;;;;;5.60;4.60;;;;;26.13;30.16;99146.56;6097519;28;96268;-57
2022/11/02 14:08:35;;;;;;;;;8.00;7.60;;;;;25.94;30.51;99147.94;6082937;28;96248;-56
2022/11/02 14:11:47;;;;;;;;;7.20;5.00;;;;;25.87;30.83;99151.13;6104321;28;97498;-56
2022/11/02 14:15:24;;;;;;;;;9.00;7.60;;;;;25.74;31.49;99154.78;6096781;28;96873;-57
2022/11/02 14:18:30;;;;;;;;;9.00;8.20;;;;;25.27;32.79;99162.50;6106730;28;97323;-57
2022/11/02 14:21:41;;;;;;;;;9.00;9.00;;;;;25.01;32.93;99150.44;6103685;28;96824;-57
2022/11/02 14:25:05;;;;;;;;;7.00;5.80;;;;;24.57;34.35;99151.88;6101248;28;96759;-57
2022/11/02 14:28:41;;;;;;;;;9.80;9.20;;;;;24.27;34.13;99157.19;6095257;28;96484;-57
2022/11/02 14:31:58;;;;;;;;;9.00;9.00;;;;;23.80;35.88;99156.31;6083679;28;98348;-60
2022/11/02 14:35:16;;;;;;;;;8.60;8.00;;;;;23.47;37.12;99162.94;6082371;28;97314;-57
2022/11/02 14:38:46;;;;;;;;;14.00;12.00;;;;;23.16;37.66;99159.81;6082342;28;97201;-57
2022/11/02 14:42:23;;;;;;;;;10.00;9.00;;;;;22.90;38.92;99162.09;6073736;28;96405;-56
2022/11/02 14:45:43;;;;;;;;;11.40;10.40;;;;;22.60;39.39;99163.28;6089228;28;96368;-57